createdAt,value
2023-03-13T00:04:37.033Z,84.60
2023-03-13T00:09:39.093Z,84.84
2023-03-13T00:14:41.137Z,85.00
2023-03-13T00:19:43.332Z,85.62
2023-03-13T00:24:46.965Z,85.81
2023-03-13T00:29:50.836Z,85.44
2023-03-13T00:34:52.780Z,85.41
2023-03-13T00:39:54.856Z,86.17
2023-03-13T00:44:57.144Z,86.32
2023-03-13T00:49:59.332Z,86.97
2023-03-13T00:55:01.474Z,87.39
2023-03-13T01:00:06.818Z,87.08
2023-03-13T01:05:09.496Z,87.75
2023-03-13T01:10:11.729Z,87.29
2023-03-13T01:15:13.861Z,87.12
2023-03-13T01:20:17.369Z,87.39
2023-03-13T01:25:19.578Z,87.63
2023-03-13T01:30:22.791Z,87.85
2023-03-13T01:35:26.115Z,87.48
2023-03-13T01:40:28.177Z,87.92
2023-03-13T01:46:16.561Z,87.83
2023-03-13T01:51:31.183Z,89.03
2023-03-13T01:57:04.191Z,89.39
2023-03-13T02:02:07.281Z,89.29
2023-03-13T02:07:18.196Z,89.40
2023-03-13T02:12:30.147Z,89.66
2023-03-13T02:17:34.561Z,89.96
2023-03-13T02:23:19.278Z,90.94
2023-03-13T02:28:33.908Z,91.07
2023-03-13T02:33:40.921Z,91.33
2023-03-13T02:38:59.921Z,91.17
2023-03-13T02:44:02.212Z,90.62
2023-03-13T02:49:20.934Z,90.76
2023-03-13T02:54:25.569Z,90.63
2023-03-13T02:59:28.064Z,91.66
2023-03-13T03:04:30.503Z,91.90
2023-03-13T03:09:33.311Z,91.66
2023-03-13T03:14:40.275Z,91.22
2023-03-13T03:19:42.692Z,91.11
2023-03-13T03:24:45.624Z,90.99
2023-03-13T03:29:47.859Z,91.76
2023-03-13T03:34:51.356Z,92.63
2023-03-13T03:39:53.535Z,92.37
2023-03-13T03:44:56.234Z,92.70
2023-03-13T03:49:58.597Z,93.28
2023-03-13T03:55:00.880Z,93.01
2023-03-13T04:00:05.428Z,92.97
2023-03-13T04:05:16.207Z,92.42
2023-03-13T04:10:19.328Z,92.96
2023-03-13T04:15:21.597Z,93.14
2023-03-13T04:20:23.905Z,92.83
2023-03-13T04:25:26.137Z,93.53
2023-03-13T04:30:31.770Z,93.35
2023-03-13T04:36:00.232Z,92.71
2023-03-13T04:41:17.629Z,93.28
2023-03-13T04:46:38.401Z,93.82
2023-03-13T04:52:07.240Z,94.30
2023-03-13T04:57:32.903Z,94.51
2023-03-13T05:02:55.185Z,94.58
2023-03-13T05:08:17.530Z,95.31
2023-03-13T05:13:45.988Z,95.11
2023-03-13T05:18:58.080Z,95.00
2023-03-13T05:24:10.774Z,94.67
2023-03-13T05:29:12.802Z,93.21
2023-03-13T05:34:31.014Z,92.62
2023-03-13T05:40:00.720Z,91.82
2023-03-13T05:45:35.398Z,92.59
2023-03-13T05:50:57.839Z,93.91
2023-03-13T05:56:18.168Z,93.80
2023-03-13T06:01:20.358Z,94.51
2023-03-13T06:06:42.734Z,94.85
2023-03-13T06:11:45.050Z,94.98
2023-03-13T06:16:47.611Z,95.46
2023-03-13T06:21:56.697Z,95.72
2023-03-13T06:26:58.722Z,96.57
2023-03-13T06:32:00.722Z,96.69
2023-03-13T06:37:03.031Z,96.58
2023-03-13T06:42:05.449Z,96.75
2023-03-13T06:47:07.725Z,96.72
2023-03-13T06:52:09.781Z,97.14
2023-03-13T06:57:11.856Z,96.83
2023-03-13T07:02:16.823Z,96.45
2023-03-13T07:07:31.032Z,96.71
2023-03-13T07:12:35.702Z,96.92
2023-03-13T07:17:38.009Z,97.82
2023-03-13T07:22:40.008Z,97.96
2023-03-13T07:27:42.032Z,96.81
2023-03-13T07:32:45.894Z,97.09
2023-03-13T07:37:47.863Z,97.94
2023-03-13T07:42:49.960Z,97.76
2023-03-13T07:47:51.939Z,97.45
2023-03-13T07:52:53.930Z,97.25
2023-03-13T07:57:55.969Z,95.56
2023-03-13T08:02:59.523Z,95.60
2023-03-13T08:08:01.656Z,96.08
2023-03-13T08:13:04.471Z,96.39
2023-03-13T08:18:06.681Z,96.53
2023-03-13T08:23:09.267Z,95.36
2023-03-13T08:28:11.765Z,94.56
2023-03-13T08:33:14.179Z,94.36
2023-03-13T08:38:17.251Z,93.99
2023-03-13T08:43:19.522Z,93.71
2023-03-13T08:48:21.475Z,93.25
2023-03-13T08:53:23.515Z,90.78
2023-03-13T08:58:25.892Z,89.63
2023-03-13T09:03:28.938Z,87.74
2023-03-13T09:08:31.569Z,85.10
2023-03-13T09:13:37.047Z,82.87
2023-03-13T09:18:39.624Z,75.98
2023-03-13T09:23:42.763Z,70.42
2023-03-13T09:28:45.090Z,67.20
2023-03-13T09:33:48.319Z,63.98
2023-03-13T09:38:58.739Z,63.04
2023-03-13T09:44:12.199Z,59.37
2023-03-13T09:49:35.018Z,59.65
2023-03-13T09:55:07.964Z,57.36
2023-03-13T10:00:31.600Z,56.73
2023-03-13T10:05:34.028Z,54.65
2023-03-13T10:10:43.893Z,52.89
2023-03-13T10:15:47.442Z,52.10
2023-03-13T10:20:52.573Z,52.27
2023-03-13T10:25:54.546Z,52.93
2023-03-13T10:31:18.066Z,51.87
2023-03-13T10:36:20.255Z,52.28
2023-03-13T10:41:30.882Z,50.60
2023-03-13T10:46:35.253Z,45.97
2023-03-13T10:51:39.821Z,46.29
2023-03-13T10:56:42.438Z,43.58
2023-03-13T11:01:59.836Z,44.36
2023-03-13T11:07:46.704Z,43.43
2023-03-13T11:13:08.687Z,43.04
2023-03-13T12:11:34.863Z,51.21
2023-03-13T12:16:44.483Z,51.09
2023-03-13T12:21:55.167Z,51.44
2023-03-13T12:27:04.601Z,49.20
2023-03-13T12:32:26.815Z,47.87
2023-03-13T12:38:15.668Z,48.35
2023-03-13T12:43:34.418Z,50.05
2023-03-13T12:49:02.927Z,47.86
2023-03-13T12:54:29.724Z,50.36
2023-03-13T12:59:48.552Z,50.36
2023-03-13T13:04:54.762Z,50.93
2023-03-13T13:10:11.609Z,48.42
2023-03-13T13:16:24.364Z,48.88
2023-03-13T13:21:26.951Z,48.75
2023-03-13T13:26:33.975Z,48.72
2023-03-13T13:31:48.460Z,47.04
2023-03-13T13:36:51.570Z,45.96
2023-03-13T13:41:53.646Z,47.73
2023-03-13T13:46:58.871Z,46.55
2023-03-13T13:52:08.929Z,46.49
2023-03-13T13:57:23.930Z,45.88
2023-03-13T14:02:41.626Z,45.84
2023-03-13T14:08:05.354Z,46.33
2023-03-13T14:13:16.042Z,47.11
2023-03-13T14:18:26.440Z,46.47
2023-03-13T14:23:31.591Z,46.18
2023-03-13T14:28:33.843Z,46.57
2023-03-13T14:33:36.186Z,46.29
2023-03-13T14:38:38.471Z,47.70
2023-03-13T14:43:43.578Z,47.17
2023-03-13T14:48:45.873Z,47.99
2023-03-13T14:54:01.935Z,48.23
2023-03-13T14:59:13.731Z,48.89
2023-03-13T15:04:15.986Z,48.78
2023-03-13T15:09:21.253Z,47.91
2023-03-13T15:14:50.227Z,49.40
2023-03-13T15:19:57.664Z,46.33
2023-03-13T15:25:08.072Z,45.58
2023-03-13T15:30:18.834Z,47.54
2023-03-13T15:35:31.789Z,47.17
2023-03-13T15:40:34.865Z,44.20
2023-03-13T15:45:39.070Z,42.61
2023-03-13T15:50:40.979Z,43.00
2023-03-13T15:55:43.179Z,43.90
2023-03-13T16:00:46.650Z,45.89
2023-03-13T16:05:49.245Z,46.76
2023-03-13T16:10:51.371Z,43.80
2023-03-13T16:15:53.380Z,44.06
2023-03-13T16:20:55.487Z,43.07
2023-03-13T16:25:57.589Z,44.75
2023-03-13T16:30:59.827Z,44.65
2023-03-13T16:36:01.987Z,46.95
2023-03-13T16:41:06.771Z,47.78
2023-03-13T16:46:30.529Z,48.57
2023-03-13T16:51:32.889Z,50.01
2023-03-13T16:56:38.664Z,49.98
2023-03-13T17:01:41.176Z,50.73
2023-03-13T17:06:45.297Z,50.40
2023-03-13T17:11:47.999Z,50.72
2023-03-13T17:16:50.152Z,50.56
2023-03-13T17:21:56.183Z,50.67
2023-03-13T17:26:58.595Z,51.81
2023-03-13T17:32:04.152Z,51.70
2023-03-13T17:37:17.913Z,52.18
2023-03-13T17:42:19.997Z,53.19
2023-03-13T17:47:24.389Z,54.11
2023-03-13T17:52:26.743Z,54.72
2023-03-13T17:57:28.822Z,55.84
2023-03-13T18:02:30.835Z,56.56
2023-03-13T18:07:32.975Z,56.96
2023-03-13T18:12:35.029Z,57.63
2023-03-13T18:17:37.347Z,57.81
2023-03-13T18:22:40.039Z,58.22
2023-03-13T18:27:42.093Z,58.57
2023-03-13T18:32:44.268Z,58.79
2023-03-13T18:37:47.702Z,58.23
2023-03-13T18:42:50.353Z,58.24
2023-03-13T18:47:53.162Z,58.03
2023-03-13T18:53:01.059Z,58.22
2023-03-13T18:58:03.435Z,57.70
2023-03-13T19:03:05.536Z,57.62
2023-03-13T19:08:09.895Z,57.46
2023-03-13T19:13:12.117Z,57.61
2023-03-13T19:18:14.158Z,57.93
2023-03-13T19:23:16.260Z,58.04
2023-03-13T19:28:19.052Z,58.25
2023-03-13T19:33:21.039Z,58.55
2023-03-13T19:38:29.613Z,58.25
2023-03-13T19:43:31.723Z,57.92
2023-03-13T19:48:33.667Z,59.62
2023-03-13T19:53:35.765Z,58.35
2023-03-13T19:58:38.053Z,57.69
2023-03-13T20:03:40.316Z,50.44
2023-03-13T20:08:42.400Z,49.17
2023-03-13T20:13:48.316Z,48.81
2023-03-13T20:18:50.615Z,49.39
2023-03-13T20:23:52.971Z,50.80
2023-03-13T20:28:55.804Z,49.88
2023-03-13T20:33:58.598Z,49.89
2023-03-13T20:39:01.149Z,50.35
2023-03-13T20:44:03.254Z,50.63
2023-03-13T20:49:05.327Z,51.66
2023-03-13T20:54:07.731Z,52.77
2023-03-13T20:59:10.128Z,52.06
2023-03-13T21:04:12.449Z,52.13
2023-03-13T21:09:15.008Z,52.44
2023-03-13T21:14:20.340Z,52.08
2023-03-13T21:19:22.441Z,53.34
2023-03-13T21:24:24.509Z,53.77
2023-03-13T21:29:28.828Z,54.65
2023-03-13T21:34:35.391Z,54.76
2023-03-13T21:39:51.291Z,55.02
2023-03-13T21:44:54.113Z,54.99
2023-03-13T21:49:56.778Z,54.94
2023-03-13T21:54:59.127Z,55.86
2023-03-13T22:00:07.351Z,55.92
2023-03-13T22:05:09.850Z,55.96
2023-03-13T22:10:12.524Z,56.39
2023-03-13T22:15:14.580Z,55.63
2023-03-13T22:20:17.063Z,54.88
2023-03-13T22:25:19.708Z,55.21
2023-03-13T22:30:21.723Z,54.22
2023-03-13T22:35:27.269Z,54.27
2023-03-13T22:40:34.863Z,54.06
2023-03-13T22:45:36.811Z,53.42
2023-03-13T22:50:38.988Z,53.70
2023-03-13T22:55:41.317Z,53.73
2023-03-13T23:00:43.950Z,52.85
2023-03-13T23:05:47.941Z,52.79
2023-03-13T23:10:50.291Z,53.07
2023-03-13T23:15:56.341Z,51.31
2023-03-13T23:20:58.689Z,51.49
2023-03-13T23:26:05.912Z,51.48
2023-03-13T23:31:19.019Z,51.46
2023-03-13T23:36:21.210Z,51.18
2023-03-13T23:41:23.079Z,51.76
2023-03-13T23:46:30.414Z,52.04
2023-03-13T23:51:32.451Z,52.16
2023-03-13T23:56:34.732Z,52.84
